Time;durP1;ratioP1;P1;durP2;ratioP2;P2;SDS_P1;SDS_P2;PMS_P1;PMS_P2;Temp;Humidity;BMP_temperature;BMP_pressure;BME280_temperature;BME280_humidity;BME280_pressure;Samples;Min_cycle;Max_cycle;Signal;HPM_P1;HPM_P2
2021/12/15 00:00:20;;;;;;;;;;;9.50;99.90;;;;;;5059225;28;19963;-82
2021/12/15 00:02:46;;;;;;;;;;;9.60;99.90;;;;;;5053535;28;19916;-83
2021/12/15 00:05:20;;;;;;;;;;;9.50;99.90;;;;;;5055167;28;19913;-81
2021/12/15 00:07:46;;;;;;;;;;;9.50;99.90;;;;;;5052114;28;19917;-82
2021/12/15 00:10:12;;;;;;;;;;;9.50;99.90;;;;;;5063121;28;19917;-82
2021/12/15 00:12:39;;;;;;;;;;;9.60;99.90;;;;;;5050051;28;20207;-82
2021/12/15 00:15:04;;;;;;;;;;;9.50;99.90;;;;;;5061760;28;19967;-82
2021/12/15 00:17:30;;;;;;;;;;;9.50;99.90;;;;;;5049470;28;19937;-83
2021/12/15 00:19:56;;;;;;;;;;;9.50;99.90;;;;;;5050133;28;19916;-82
2021/12/15 00:22:21;;;;;;;;;;;9.50;99.90;;;;;;5053125;28;19928;-81
2021/12/15 00:24:47;;;;;;;;;;;9.50;99.90;;;;;;5053459;28;20162;-82
2021/12/15 00:27:13;;;;;;;;;;;9.60;99.90;;;;;;5053075;28;19932;-82
2021/12/15 00:29:38;;;;;;;;;;;9.50;99.90;;;;;;5032009;28;19925;-82
2021/12/15 00:32:04;;;;;;;;;;;9.50;99.90;;;;;;5052500;28;19916;-83
2021/12/15 00:34:34;;;;;;;;;;;9.50;99.90;;;;;;5052229;28;19921;-83
2021/12/15 00:37:00;;;;;;;;;;;9.50;99.90;;;;;;5052318;28;20247;-83
2021/12/15 00:39:27;;;;;;;;;;;9.50;99.90;;;;;;5054238;28;19974;-82
2021/12/15 00:41:53;;;;;;;;;;;9.50;99.90;;;;;;5050833;28;19920;-83
2021/12/15 00:44:19;;;;;;;;;;;9.50;99.90;;;;;;5053258;28;19920;-82
2021/12/15 00:46:44;;;;;;;;;;;9.50;99.90;;;;;;5053651;28;19920;-82
2021/12/15 00:49:10;;;;;;;;;;;9.50;99.90;;;;;;5055196;28;20327;-83
2021/12/15 00:51:37;;;;;;;;;;;9.50;99.90;;;;;;5052816;28;19917;-84
2021/12/15 00:54:02;;;;;;;;;;;9.50;99.90;;;;;;5054632;28;20002;-84
2021/12/15 00:56:28;;;;;;;;;;;9.40;99.90;;;;;;5055164;28;19940;-86
2021/12/15 00:58:54;;;;;;;;;;;9.40;99.90;;;;;;5049605;28;19928;-82
2021/12/15 01:01:21;;;;;;;;;;;9.40;99.90;;;;;;5053674;28;20003;-83
2021/12/15 01:03:46;;;;;;;;;;;9.40;99.90;;;;;;5052033;28;19939;-82
2021/12/15 01:06:12;;;;;;;;;;;9.40;99.90;;;;;;5052554;28;20332;-83
2021/12/15 01:08:43;;;;;;;;;;;9.40;99.90;;;;;;5053954;28;20015;-83
2021/12/15 01:11:25;;;;;;;;;;;9.40;99.90;;;;;;5053453;28;19912;-84
2021/12/15 01:22:11;;;;;;;;;;;9.40;99.90;;;;;;5053076;28;20272;-84
2021/12/15 01:24:36;;;;;;;;;;;9.40;99.90;;;;;;5053040;28;20012;-83
2021/12/15 01:27:02;;;;;;;;;;;9.30;99.90;;;;;;5054076;28;19917;-83
2021/12/15 01:29:28;;;;;;;;;;;9.30;99.90;;;;;;5053370;28;20016;-82
2021/12/15 01:31:54;;;;;;;;;;;9.30;99.90;;;;;;5052565;28;19921;-82
2021/12/15 01:34:20;;;;;;;;;;;9.30;99.90;;;;;;5053560;28;20317;-82
2021/12/15 01:36:46;;;;;;;;;;;9.30;99.90;;;;;;5053343;28;19921;-83
2021/12/15 01:39:11;;;;;;;;;;;9.30;99.90;;;;;;5054521;28;20052;-83
2021/12/15 01:41:37;;;;;;;;;;;9.30;99.90;;;;;;5055065;28;20008;-82
2021/12/15 01:49:22;;;;;;;;;;;9.30;99.90;;;;;;5055840;28;20329;-84
2021/12/15 01:51:48;;;;;;;;;;;9.30;99.90;;;;;;5063212;28;19917;-84
2021/12/15 01:54:15;;;;;;;;;;;9.30;99.90;;;;;;5077222;28;19924;-83
2021/12/15 01:56:41;;;;;;;;;;;9.30;99.90;;;;;;5076088;28;19909;-83
2021/12/15 01:59:07;;;;;;;;;;;9.30;99.90;;;;;;5067394;28;20473;-85
2021/12/15 02:01:33;;;;;;;;;;;9.30;99.90;;;;;;5054227;28;19921;-84
2021/12/15 02:03:59;;;;;;;;;;;9.30;99.90;;;;;;5055287;28;19923;-83
2021/12/15 02:06:25;;;;;;;;;;;9.30;99.90;;;;;;5056179;28;20061;-84
2021/12/15 02:08:51;;;;;;;;;;;9.30;99.90;;;;;;5051555;28;19999;-84
2021/12/15 02:11:17;;;;;;;;;;;9.20;99.90;;;;;;5067071;28;19912;-83
2021/12/15 02:13:43;;;;;;;;;;;9.30;99.90;;;;;;5056935;28;19916;-85
2021/12/15 02:16:09;;;;;;;;;;;9.30;99.90;;;;;;5067115;28;19917;-85
2021/12/15 02:18:37;;;;;;;;;;;9.30;99.90;;;;;;5070494;28;20256;-86
2021/12/15 02:21:24;;;;;;;;;;;9.30;99.90;;;;;;5055128;28;19917;-83
2021/12/15 02:23:53;;;;;;;;;;;9.20;99.90;;;;;;5056761;28;19963;-85
2021/12/15 02:26:21;;;;;;;;;;;9.30;99.90;;;;;;5047399;28;20322;-85
2021/12/15 02:28:49;;;;;;;;;;;9.30;99.90;;;;;;5055217;28;19927;-85
2021/12/15 02:31:33;;;;;;;;;;;9.30;99.90;;;;;;5052522;28;19931;-85
2021/12/15 02:39:30;;;;;;;;;;;9.20;99.90;;;;;;5056757;28;19913;-86
2021/12/15 02:41:55;;;;;;;;;;;9.20;99.90;;;;;;5055226;28;20368;-85
2021/12/15 02:44:22;;;;;;;;;;;9.20;99.90;;;;;;5064673;28;19912;-85
2021/12/15 02:46:49;;;;;;;;;;;9.20;99.90;;;;;;5066426;28;19916;-84
2021/12/15 02:49:16;;;;;;;;;;;9.30;99.90;;;;;;5053783;28;19925;-84
2021/12/15 02:51:43;;;;;;;;;;;9.20;99.90;;;;;;5067976;28;20360;-84
2021/12/15 02:54:09;;;;;;;;;;;9.20;99.90;;;;;;5074981;28;20006;-83
2021/12/15 02:56:35;;;;;;;;;;;9.20;99.90;;;;;;5073860;28;19919;-84
2021/12/15 02:59:04;;;;;;;;;;;9.20;99.90;;;;;;5062327;28;19917;-84
2021/12/15 03:01:39;;;;;;;;;;;9.20;99.90;;;;;;5056720;28;20366;-83
2021/12/15 03:06:50;;;;;;;;;;;9.20;99.90;;;;;;5076060;28;20055;-83
2021/12/15 03:17:16;;;;;;;;;;;9.20;99.90;;;;;;5076220;28;19961;-84
2021/12/15 03:19:41;;;;;;;;;;;9.20;99.90;;;;;;5045489;28;19927;-84
2021/12/15 03:22:07;;;;;;;;;;;9.20;99.90;;;;;;5035667;28;19913;-83
2021/12/15 03:24:33;;;;;;;;;;;9.20;99.90;;;;;;5051282;28;20219;-84
2021/12/15 03:27:04;;;;;;;;;;;9.20;99.90;;;;;;5054800;28;19908;-85
2021/12/15 03:37:35;;;;;;;;;;;9.20;99.90;;;;;;5059370;28;20027;-85
2021/12/15 03:40:19;;;;;;;;;;;9.20;99.90;;;;;;5055103;28;19913;-84
2021/12/15 03:42:52;;;;;;;;;;;9.20;99.90;;;;;;5058259;28;19913;-84
2021/12/15 03:45:22;;;;;;;;;;;9.20;99.90;;;;;;5073964;28;19951;-85
2021/12/15 03:47:49;;;;;;;;;;;9.20;99.90;;;;;;5076724;28;19917;-87
2021/12/15 03:50:16;;;;;;;;;;;9.20;99.90;;;;;;5059251;28;19967;-84
2021/12/15 03:52:41;;;;;;;;;;;9.20;99.90;;;;;;5074219;28;19923;-84
2021/12/15 03:55:09;;;;;;;;;;;9.20;99.90;;;;;;5058368;28;20270;-85
2021/12/15 03:57:34;;;;;;;;;;;9.20;99.90;;;;;;5077513;28;20003;-85
2021/12/15 04:00:00;;;;;;;;;;;9.20;99.90;;;;;;5065360;28;19999;-86
2021/12/15 04:02:26;;;;;;;;;;;9.30;99.90;;;;;;5063026;28;20308;-86
2021/12/15 04:04:52;;;;;;;;;;;9.20;99.90;;;;;;5060283;28;19916;-86
2021/12/15 04:07:19;;;;;;;;;;;9.20;99.90;;;;;;5056397;28;19920;-86
2021/12/15 04:09:45;;;;;;;;;;;9.20;99.90;;;;;;5056052;28;20007;-85
2021/12/15 04:12:12;;;;;;;;;;;9.20;99.90;;;;;;5057170;28;19938;-85
2021/12/15 04:14:44;;;;;;;;;;;9.20;99.90;;;;;;5057136;28;19955;-85
2021/12/15 04:17:26;;;;;;;;;;;9.20;99.90;;;;;;5059227;28;20348;-84
2021/12/15 04:20:00;;;;;;;;;;;9.30;99.90;;;;;;5056927;28;19920;-84
2021/12/15 04:22:26;;;;;;;;;;;9.20;99.90;;;;;;5056167;28;19917;-84
2021/12/15 04:24:52;;;;;;;;;;;9.20;99.90;;;;;;5054965;28;20280;-82
2021/12/15 04:27:20;;;;;;;;;;;9.30;99.90;;;;;;5055023;28;19925;-85
2021/12/15 04:29:47;;;;;;;;;;;9.30;99.90;;;;;;5044400;28;20206;-85
2021/12/15 04:32:19;;;;;;;;;;;9.30;99.90;;;;;;5038645;28;20449;-86
2021/12/15 04:34:45;;;;;;;;;;;9.30;99.90;;;;;;5036061;28;19917;-86
2021/12/15 04:37:10;;;;;;;;;;;9.30;99.90;;;;;;5037180;28;19913;-84
2021/12/15 04:39:36;;;;;;;;;;;9.30;99.90;;;;;;5052910;28;19914;-85
2021/12/15 04:42:03;;;;;;;;;;;9.30;99.90;;;;;;5037535;28;19913;-86
2021/12/15 04:44:30;;;;;;;;;;;9.30;99.90;;;;;;5052307;28;19945;-87
2021/12/15 04:47:04;;;;;;;;;;;9.30;99.90;;;;;;5037663;28;19910;-85
2021/12/15 04:49:31;;;;;;;;;;;9.30;99.90;;;;;;5038023;28;19928;-85
2021/12/15 04:51:57;;;;;;;;;;;9.30;99.90;;;;;;5037151;28;19913;-85
2021/12/15 04:54:22;;;;;;;;;;;9.30;99.90;;;;;;5035722;28;20623;-85
2021/12/15 04:56:48;;;;;;;;;;;9.30;99.90;;;;;;5039865;28;19921;-84
2021/12/15 04:59:14;;;;;;;;;;;9.30;99.90;;;;;;5033643;28;19928;-84
2021/12/15 05:01:40;;;;;;;;;;;9.30;99.90;;;;;;5032074;28;19917;-84
2021/12/15 05:04:05;;;;;;;;;;;9.30;99.90;;;;;;5032347;28;19920;-84
2021/12/15 05:06:31;;;;;;;;;;;9.30;99.90;;;;;;5033761;28;20475;-83
2021/12/15 05:08:57;;;;;;;;;;;9.30;99.90;;;;;;5036524;28;19972;-85
2021/12/15 05:11:22;;;;;;;;;;;9.30;99.90;;;;;;5051516;28;20003;-84
2021/12/15 05:13:48;;;;;;;;;;;9.30;99.90;;;;;;5037271;28;19959;-85
2021/12/15 05:16:16;;;;;;;;;;;9.30;99.90;;;;;;5036172;28;19924;-85
2021/12/15 05:18:43;;;;;;;;;;;9.30;99.90;;;;;;5035954;28;19971;-85
2021/12/15 05:21:10;;;;;;;;;;;9.30;99.90;;;;;;5035710;28;19913;-84
2021/12/15 05:23:35;;;;;;;;;;;9.30;99.90;;;;;;5035583;28;20296;-83
2021/12/15 05:26:02;;;;;;;;;;;9.30;99.90;;;;;;5036179;28;19920;-82
2021/12/15 05:28:28;;;;;;;;;;;9.30;99.90;;;;;;5036974;28;19928;-83
2021/12/15 05:30:54;;;;;;;;;;;9.30;99.90;;;;;;5037942;28;19921;-82
2021/12/15 05:33:19;;;;;;;;;;;9.20;99.90;;;;;;5034876;28;19923;-82
2021/12/15 05:35:45;;;;;;;;;;;9.20;99.90;;;;;;5039856;28;19913;-84
2021/12/15 05:38:10;;;;;;;;;;;9.20;99.90;;;;;;5044241;28;20197;-85
2021/12/15 05:40:37;;;;;;;;;;;9.20;99.90;;;;;;5039228;28;19917;-86
2021/12/15 05:43:04;;;;;;;;;;;9.20;99.90;;;;;;5037749;28;20007;-85
2021/12/15 05:45:32;;;;;;;;;;;9.30;99.90;;;;;;5037280;28;20380;-84
2021/12/15 05:47:58;;;;;;;;;;;9.20;99.90;;;;;;5048206;28;19916;-84
2021/12/15 05:50:25;;;;;;;;;;;9.20;99.90;;;;;;5043970;28;19995;-83
2021/12/15 05:52:51;;;;;;;;;;;9.20;99.90;;;;;;5046667;28;20412;-84
2021/12/15 05:55:18;;;;;;;;;;;9.30;99.90;;;;;;5031974;28;19927;-84
2021/12/15 05:57:43;;;;;;;;;;;9.30;99.90;;;;;;5035276;28;19967;-85
2021/12/15 06:00:29;;;;;;;;;;;9.30;99.90;;;;;;5036352;28;19925;-84
2021/12/15 06:02:56;;;;;;;;;;;9.20;99.90;;;;;;5025089;28;19917;-84
2021/12/15 06:05:21;;;;;;;;;;;9.30;99.90;;;;;;5031610;28;19917;-84
2021/12/15 06:07:47;;;;;;;;;;;9.30;99.90;;;;;;5035309;28;20287;-86
2021/12/15 06:10:15;;;;;;;;;;;9.30;99.90;;;;;;5032477;28;20215;-83
2021/12/15 06:12:42;;;;;;;;;;;9.30;99.90;;;;;;5030588;28;19983;-82
2021/12/15 06:15:08;;;;;;;;;;;9.30;99.90;;;;;;5021702;28;19918;-84
2021/12/15 06:17:34;;;;;;;;;;;9.30;99.90;;;;;;5041058;28;20313;-83
2021/12/15 06:20:00;;;;;;;;;;;9.30;99.90;;;;;;5030552;28;19917;-85
2021/12/15 06:22:27;;;;;;;;;;;9.30;99.90;;;;;;5044430;28;19920;-84
2021/12/15 06:24:53;;;;;;;;;;;9.30;99.90;;;;;;5022759;28;20316;-87
2021/12/15 06:27:20;;;;;;;;;;;9.30;99.90;;;;;;5045663;28;19921;-86
2021/12/15 06:29:50;;;;;;;;;;;9.30;99.90;;;;;;5025731;28;19921;-85
2021/12/15 06:32:16;;;;;;;;;;;9.30;99.90;;;;;;5029782;28;19913;-82
2021/12/15 06:34:42;;;;;;;;;;;9.30;99.90;;;;;;5032861;28;19976;-83
2021/12/15 06:37:08;;;;;;;;;;;9.30;99.90;;;;;;5027662;28;19918;-82
2021/12/15 06:39:34;;;;;;;;;;;9.30;99.90;;;;;;5032390;28;20647;-84
2021/12/15 06:41:59;;;;;;;;;;;9.30;99.90;;;;;;5027378;28;19919;-84
2021/12/15 06:44:25;;;;;;;;;;;9.30;99.90;;;;;;5028541;28;19984;-85
2021/12/15 07:00:27;;;;;;;;;;;9.40;99.90;;;;;;5027127;28;19922;-83
2021/12/15 07:02:53;;;;;;;;;;;9.40;99.90;;;;;;5021489;28;20193;-84
2021/12/15 07:05:19;;;;;;;;;;;9.40;99.90;;;;;;5029198;28;19939;-85
2021/12/15 07:07:46;;;;;;;;;;;9.40;99.90;;;;;;5028739;28;19917;-85
2021/12/15 07:10:13;;;;;;;;;;;9.40;99.90;;;;;;5030881;28;19967;-84
2021/12/15 07:12:39;;;;;;;;;;;9.30;99.90;;;;;;5027406;28;19913;-84
2021/12/15 07:15:06;;;;;;;;;;;9.40;99.90;;;;;;5027565;28;19924;-86
2021/12/15 07:17:38;;;;;;;;;;;9.40;99.90;;;;;;5016052;28;19917;-82
2021/12/15 07:20:17;;;;;;;;;;;9.40;99.90;;;;;;5023612;28;20124;-82
2021/12/15 07:22:44;;;;;;;;;;;9.40;99.90;;;;;;5047718;28;19917;-82
2021/12/15 07:25:13;;;;;;;;;;;9.40;99.90;;;;;;5034271;28;19913;-84
2021/12/15 07:27:39;;;;;;;;;;;9.40;99.90;;;;;;5032703;28;19921;-83
2021/12/15 07:30:05;;;;;;;;;;;9.40;99.90;;;;;;5033518;28;20244;-85
2021/12/15 07:32:31;;;;;;;;;;;9.40;99.90;;;;;;5048625;28;19920;-85
2021/12/15 07:34:57;;;;;;;;;;;9.40;99.90;;;;;;5032195;28;19921;-83
2021/12/15 07:37:22;;;;;;;;;;;9.40;99.90;;;;;;5033037;28;20331;-82
2021/12/15 07:39:57;;;;;;;;;;;9.40;99.90;;;;;;5034372;28;19920;-83
2021/12/15 07:42:31;;;;;;;;;;;9.40;99.90;;;;;;5033249;28;19917;-82
2021/12/15 07:44:57;;;;;;;;;;;9.40;99.90;;;;;;5032184;28;19924;-82
2021/12/15 07:47:22;;;;;;;;;;;9.40;99.90;;;;;;5035718;28;19917;-81
2021/12/15 07:49:48;;;;;;;;;;;9.40;99.90;;;;;;5030444;28;19917;-82
2021/12/15 07:52:14;;;;;;;;;;;9.40;99.90;;;;;;5032312;28;20260;-83
2021/12/15 07:54:39;;;;;;;;;;;9.40;99.90;;;;;;5030494;28;19917;-82
2021/12/15 07:57:10;;;;;;;;;;;9.40;99.90;;;;;;5038367;28;19913;-81
2021/12/15 07:59:35;;;;;;;;;;;9.40;99.90;;;;;;5046006;28;19914;-81
2021/12/15 08:02:01;;;;;;;;;;;9.40;99.90;;;;;;5035699;28;19917;-81
2021/12/15 08:04:27;;;;;;;;;;;9.40;99.90;;;;;;5034590;28;19971;-82
2021/12/15 08:06:52;;;;;;;;;;;9.40;99.90;;;;;;5032725;28;20297;-81
2021/12/15 08:09:20;;;;;;;;;;;9.40;99.90;;;;;;5032292;28;19921;-82
2021/12/15 08:11:46;;;;;;;;;;;9.40;99.90;;;;;;5048173;28;19920;-83
2021/12/15 08:14:11;;;;;;;;;;;9.40;99.90;;;;;;5034165;28;20004;-83
2021/12/15 08:16:37;;;;;;;;;;;9.50;99.90;;;;;;5031542;28;20248;-83
2021/12/15 08:19:03;;;;;;;;;;;9.50;99.90;;;;;;5030060;28;20394;-84
2021/12/15 08:21:28;;;;;;;;;;;9.50;99.90;;;;;;5047907;28;19995;-82
2021/12/15 08:23:55;;;;;;;;;;;9.50;99.90;;;;;;5036893;28;19924;-83
2021/12/15 08:26:20;;;;;;;;;;;9.50;99.90;;;;;;5045025;28;19914;-84
2021/12/15 08:28:46;;;;;;;;;;;9.50;99.90;;;;;;5039830;28;19917;-86
2021/12/15 08:31:11;;;;;;;;;;;9.50;99.90;;;;;;5036377;28;20003;-85
2021/12/15 08:33:37;;;;;;;;;;;9.50;99.90;;;;;;5047328;28;20007;-83
2021/12/15 08:36:05;;;;;;;;;;;9.50;99.90;;;;;;5034830;28;20000;-83
2021/12/15 08:38:34;;;;;;;;;;;9.50;99.90;;;;;;5035923;28;20327;-84
2021/12/15 08:41:00;;;;;;;;;;;9.50;99.90;;;;;;5036449;28;20277;-83
2021/12/15 08:43:26;;;;;;;;;;;9.60;99.90;;;;;;5034381;28;19913;-82
2021/12/15 08:45:57;;;;;;;;;;;9.50;99.90;;;;;;5033483;28;19917;-84
2021/12/15 08:48:22;;;;;;;;;;;9.60;99.90;;;;;;5029962;28;19979;-84
2021/12/15 08:50:48;;;;;;;;;;;9.50;99.90;;;;;;5033019;28;20536;-83
2021/12/15 08:53:14;;;;;;;;;;;9.50;99.90;;;;;;5035915;28;19923;-83
2021/12/15 08:55:45;;;;;;;;;;;9.60;99.90;;;;;;5034203;28;19948;-83
2021/12/15 08:58:12;;;;;;;;;;;9.50;99.90;;;;;;5036737;28;20197;-84
2021/12/15 09:00:40;;;;;;;;;;;9.60;99.90;;;;;;5036345;28;19913;-83
2021/12/15 09:03:06;;;;;;;;;;;9.60;99.90;;;;;;5036513;28;19913;-82
2021/12/15 09:05:32;;;;;;;;;;;9.60;99.90;;;;;;5047511;28;19924;-84
2021/12/15 09:07:59;;;;;;;;;;;9.60;99.90;;;;;;5036845;28;19917;-83
2021/12/15 09:10:26;;;;;;;;;;;9.60;99.90;;;;;;5037686;28;19931;-84
2021/12/15 09:12:52;;;;;;;;;;;9.60;99.90;;;;;;5034013;28;19924;-82
2021/12/15 09:15:18;;;;;;;;;;;9.70;99.90;;;;;;5035423;28;19913;-82
2021/12/15 09:17:54;;;;;;;;;;;9.70;99.90;;;;;;5044835;28;20316;-86
2021/12/15 09:20:22;;;;;;;;;;;9.80;99.90;;;;;;5028415;28;19924;-83
2021/12/15 09:22:48;;;;;;;;;;;9.80;99.90;;;;;;5037513;28;19913;-83
2021/12/15 09:25:14;;;;;;;;;;;9.80;99.90;;;;;;5033752;28;19976;-82
2021/12/15 09:27:40;;;;;;;;;;;9.80;99.90;;;;;;5023343;28;20202;-82
2021/12/15 09:30:11;;;;;;;;;;;9.80;99.90;;;;;;4927070;28;2930298;-82
2021/12/15 09:32:36;;;;;;;;;;;9.90;99.90;;;;;;5046914;28;20556;-83
2021/12/15 09:35:03;;;;;;;;;;;9.90;99.90;;;;;;5032055;28;19924;-83
2021/12/15 09:37:28;;;;;;;;;;;9.90;99.90;;;;;;5035021;28;20225;-86
2021/12/15 09:39:55;;;;;;;;;;;9.90;99.90;;;;;;5035497;28;19928;-83
2021/12/15 09:42:25;;;;;;;;;;;9.90;99.90;;;;;;5032586;28;19909;-83
2021/12/15 09:44:54;;;;;;;;;;;10.00;99.90;;;;;;5035173;28;19920;-83
2021/12/15 09:47:38;;;;;;;;;;;10.00;99.90;;;;;;5044244;28;20000;-84
2021/12/15 10:04:09;;;;;;;;;;;10.10;99.90;;;;;;5029629;28;19971;-82
2021/12/15 10:06:51;;;;;;;;;;;10.10;99.90;;;;;;5030405;28;19952;-82
2021/12/15 10:17:46;;;;;;;;;;;10.20;99.90;;;;;;5029450;28;19960;-82
2021/12/15 10:20:22;;;;;;;;;;;10.20;99.90;;;;;;5027724;28;19964;-84
2021/12/15 10:22:51;;;;;;;;;;;10.30;99.90;;;;;;5027969;28;19921;-84
2021/12/15 10:25:17;;;;;;;;;;;10.30;99.90;;;;;;5042996;28;19924;-81
2021/12/15 10:27:42;;;;;;;;;;;10.30;99.90;;;;;;5019559;28;19914;-81
2021/12/15 10:30:14;;;;;;;;;;;10.30;99.90;;;;;;5027796;28;20706;-84
2021/12/15 10:32:41;;;;;;;;;;;10.30;99.90;;;;;;5028628;28;19921;-83
2021/12/15 10:35:07;;;;;;;;;;;10.40;99.90;;;;;;5028124;28;20003;-82
2021/12/15 10:37:33;;;;;;;;;;;10.40;99.90;;;;;;5018459;28;20012;-83
2021/12/15 10:40:13;;;;;;;;;;;10.40;99.90;;;;;;5028145;28;21054;-82
2021/12/15 10:42:38;;;;;;;;;;;10.40;99.90;;;;;;5028189;28;19917;-82
2021/12/15 10:45:05;;;;;;;;;;;10.50;99.90;;;;;;5027445;28;20343;-83
2021/12/15 10:47:38;;;;;;;;;;;10.50;99.90;;;;;;5025206;28;19924;-82
2021/12/15 10:50:04;;;;;;;;;;;10.50;99.90;;;;;;5027536;28;19925;-81
2021/12/15 10:52:32;;;;;;;;;;;10.60;99.90;;;;;;5027554;28;19917;-84
2021/12/15 10:55:03;;;;;;;;;;;10.60;99.90;;;;;;5025046;28;20256;-82
2021/12/15 10:57:37;;;;;;;;;;;10.60;99.90;;;;;;5029044;28;20325;-82
2021/12/15 11:00:07;;;;;;;;;;;10.60;99.90;;;;;;5028084;28;19928;-82
2021/12/15 11:02:33;;;;;;;;;;;10.60;99.90;;;;;;5027274;28;19979;-82
2021/12/15 11:05:02;;;;;;;;;;;10.70;99.90;;;;;;5042698;28;20308;-83
2021/12/15 11:07:29;;;;;;;;;;;10.70;99.90;;;;;;5026594;28;20662;-82
2021/12/15 11:10:15;;;;;;;;;;;10.80;99.90;;;;;;5046836;28;19939;-83
2021/12/15 11:12:51;;;;;;;;;;;10.70;99.90;;;;;;5030904;28;20012;-81
2021/12/15 11:15:17;;;;;;;;;;;10.70;99.90;;;;;;5028371;28;20366;-84
2021/12/15 11:17:45;;;;;;;;;;;10.70;99.90;;;;;;5029847;28;19912;-83
2021/12/15 11:20:13;;;;;;;;;;;10.70;99.90;;;;;;5023810;28;19921;-82
2021/12/15 11:22:48;;;;;;;;;;;10.70;99.90;;;;;;5028577;28;19921;-83
2021/12/15 11:25:19;;;;;;;;;;;10.70;99.90;;;;;;5027940;28;19971;-83
2021/12/15 11:27:53;;;;;;;;;;;10.70;99.90;;;;;;5029300;28;19917;-83
2021/12/15 11:30:20;;;;;;;;;;;10.70;99.90;;;;;;5027396;28;19936;-84
2021/12/15 11:32:48;;;;;;;;;;;10.70;99.90;;;;;;5028966;28;19913;-82
2021/12/15 11:35:17;;;;;;;;;;;10.80;99.90;;;;;;5028588;28;19920;-83
2021/12/15 11:37:44;;;;;;;;;;;10.80;99.90;;;;;;5030059;28;19913;-82
2021/12/15 11:40:10;;;;;;;;;;;10.70;99.90;;;;;;5028425;28;19964;-84
2021/12/15 11:42:39;;;;;;;;;;;10.80;99.90;;;;;;5029011;28;19960;-82
2021/12/15 11:45:09;;;;;;;;;;;10.90;99.90;;;;;;5027407;28;19921;-83
2021/12/15 11:47:36;;;;;;;;;;;10.90;99.90;;;;;;5026605;28;19921;-84
2021/12/15 11:50:31;;;;;;;;;;;11.00;99.90;;;;;;5041623;28;19920;-85
2021/12/15 11:52:57;;;;;;;;;;;11.00;99.90;;;;;;4966668;28;19964;-86
2021/12/15 11:55:24;;;;;;;;;;;10.90;99.90;;;;;;4967613;28;19965;-84
2021/12/15 11:57:50;;;;;;;;;;;10.80;99.90;;;;;;4965418;28;19980;-84
2021/12/15 12:00:17;;;;;;;;;;;10.70;99.90;;;;;;4967519;28;19949;-90
2021/12/15 12:02:47;;;;;;;;;;;10.60;99.90;;;;;;4969723;28;19961;-88
2021/12/15 12:05:21;;;;;;;;;;;10.60;99.90;;;;;;4967236;28;19949;-85
2021/12/15 12:07:57;;;;;;;;;;;10.60;99.90;;;;;;4964675;28;20428;-85
2021/12/15 12:10:28;;;;;;;;;;;10.60;99.90;;;;;;4940665;28;20004;-79
2021/12/15 12:13:03;;;;;;;;;;;10.60;99.90;;;;;;4955022;28;19918;-86
2021/12/15 12:15:29;;;;;;;;;;;10.60;99.90;;;;;;4952416;28;19924;-84
2021/12/15 12:17:57;;;;;;;;;;;10.70;99.90;;;;;;4966987;28;19929;-86
2021/12/15 12:20:27;;;;;;;;;;;10.70;99.90;;;;;;4965150;28;20654;-83
2021/12/15 12:22:54;;;;;;;;;;;10.70;99.90;;;;;;4953152;28;19918;-84
2021/12/15 12:25:30;;;;;;;;;;;10.70;99.90;;;;;;4951089;28;19922;-82
2021/12/15 12:27:57;;;;;;;;;;;10.80;99.90;;;;;;4965172;28;19989;-83
2021/12/15 12:30:25;;;;;;;;;;;10.70;99.90;;;;;;5024301;28;19925;-84
2021/12/15 12:32:51;;;;;;;;;;;10.80;99.90;;;;;;5032214;28;19935;-84
2021/12/15 12:35:19;;;;;;;;;;;10.80;99.90;;;;;;5029745;28;20008;-83
2021/12/15 12:37:50;;;;;;;;;;;10.80;99.90;;;;;;5030656;28;20336;-83
2021/12/15 12:40:27;;;;;;;;;;;10.90;99.90;;;;;;5029332;28;19959;-84
2021/12/15 12:42:53;;;;;;;;;;;10.80;99.90;;;;;;5032488;28;19940;-83
2021/12/15 12:45:35;;;;;;;;;;;10.80;99.90;;;;;;5032531;28;19928;-82
2021/12/15 12:57:57;;;;;;;;;;;10.80;99.90;;;;;;5032165;28;19928;-82
2021/12/15 12:59:39;;;;;;;;;;;10.60;99.90;;;;;;5032725;28;19928;-83
2021/12/15 13:02:31;;;;;;;;;;;10.60;99.90;;;;;;5030808;28;20485;-83
2021/12/15 13:04:57;;;;;;;;;;;10.70;99.90;;;;;;5031486;28;19917;-83
2021/12/15 13:07:41;;;;;;;;;;;10.70;99.90;;;;;;5033344;28;20223;-83
2021/12/15 13:10:07;;;;;;;;;;;10.70;99.90;;;;;;5033091;28;20371;-83
2021/12/15 13:12:37;;;;;;;;;;;10.70;99.90;;;;;;5047746;28;20020;-83
2021/12/15 13:15:03;;;;;;;;;;;10.70;99.90;;;;;;5021837;28;20197;-83
2021/12/15 13:17:35;;;;;;;;;;;10.70;99.90;;;;;;5030260;28;19920;-82
2021/12/15 13:20:03;;;;;;;;;;;10.80;99.90;;;;;;5029388;28;19959;-82
2021/12/15 13:30:38;;;;;;;;;;;10.60;99.90;;;;;;5031724;28;19932;-83
2021/12/15 13:33:12;;;;;;;;;;;10.60;99.90;;;;;;5044011;28;20324;-84
2021/12/15 13:35:46;;;;;;;;;;;10.50;99.90;;;;;;5029750;28;20502;-82
2021/12/15 13:38:12;;;;;;;;;;;10.60;99.90;;;;;;5030738;28;20102;-84
2021/12/15 13:40:43;;;;;;;;;;;10.60;99.90;;;;;;5030153;28;19921;-81
2021/12/15 13:43:32;;;;;;;;;;;10.60;99.90;;;;;;5029306;28;19923;-83
2021/12/15 13:45:58;;;;;;;;;;;10.60;99.90;;;;;;4994206;28;19913;-83
2021/12/15 13:48:42;;;;;;;;;;;10.50;99.90;;;;;;5031330;28;19917;-83
2021/12/15 13:51:08;;;;;;;;;;;10.50;99.90;;;;;;5040113;28;19930;-83
2021/12/15 13:53:34;;;;;;;;;;;10.50;99.90;;;;;;5026271;28;19914;-83
2021/12/15 13:56:00;;;;;;;;;;;10.50;99.90;;;;;;5028734;28;20000;-83
2021/12/15 13:58:31;;;;;;;;;;;10.40;99.90;;;;;;5030430;28;19921;-83
2021/12/15 14:00:56;;;;;;;;;;;10.50;99.90;;;;;;5030104;28;19948;-82
2021/12/15 14:03:22;;;;;;;;;;;10.50;99.90;;;;;;5044693;28;20370;-83
2021/12/15 14:05:51;;;;;;;;;;;10.50;99.90;;;;;;5053734;28;19928;-83
2021/12/15 14:08:26;;;;;;;;;;;10.50;99.90;;;;;;5042208;28;19916;-82
2021/12/15 14:10:54;;;;;;;;;;;10.50;99.90;;;;;;5035374;28;19956;-81
2021/12/15 14:13:21;;;;;;;;;;;10.50;99.90;;;;;;5034413;28;20000;-83
2021/12/15 14:15:47;;;;;;;;;;;10.50;99.90;;;;;;5033342;28;19926;-83
2021/12/15 14:18:33;;;;;;;;;;;10.40;99.90;;;;;;5053056;28;19917;-83
2021/12/15 14:21:05;;;;;;;;;;;10.30;99.90;;;;;;5036738;28;19917;-83
2021/12/15 14:23:33;;;;;;;;;;;10.30;99.90;;;;;;5039112;28;19914;-83
2021/12/15 14:25:59;;;;;;;;;;;10.30;99.90;;;;;;5034005;28;20059;-83
2021/12/15 14:28:27;;;;;;;;;;;10.30;99.90;;;;;;5034432;28;19928;-83
2021/12/15 14:30:55;;;;;;;;;;;10.20;99.90;;;;;;5034056;28;20324;-83
2021/12/15 14:33:23;;;;;;;;;;;10.20;99.90;;;;;;5035507;28;19917;-83
2021/12/15 14:35:50;;;;;;;;;;;10.20;99.90;;;;;;5033815;28;20204;-82
2021/12/15 14:38:16;;;;;;;;;;;10.20;99.90;;;;;;5034842;28;19917;-83
2021/12/15 14:40:42;;;;;;;;;;;10.10;99.90;;;;;;5047077;28;20339;-85
2021/12/15 14:43:10;;;;;;;;;;;10.10;99.90;;;;;;5034031;28;19917;-83
2021/12/15 14:45:36;;;;;;;;;;;10.10;99.90;;;;;;5034486;28;19969;-82
2021/12/15 14:48:01;;;;;;;;;;;10.10;99.90;;;;;;5054426;28;19920;-82
2021/12/15 14:50:27;;;;;;;;;;;10.10;99.90;;;;;;5048680;28;19921;-83
2021/12/15 14:52:56;;;;;;;;;;;10.10;99.90;;;;;;5022289;28;19913;-81
2021/12/15 14:55:27;;;;;;;;;;;10.10;99.90;;;;;;5025458;28;19912;-83
2021/12/15 14:57:52;;;;;;;;;;;10.00;99.90;;;;;;5032864;28;19963;-83
2021/12/15 15:00:20;;;;;;;;;;;10.00;99.90;;;;;;5044374;28;20262;-83
2021/12/15 15:02:50;;;;;;;;;;;10.00;99.90;;;;;;5038031;28;20043;-82
2021/12/15 15:05:19;;;;;;;;;;;9.90;99.90;;;;;;5029840;28;19913;-84
2021/12/15 15:07:46;;;;;;;;;;;9.90;99.90;;;;;;5045593;28;19909;-83
2021/12/15 15:10:14;;;;;;;;;;;9.90;99.90;;;;;;5022504;28;20016;-83
2021/12/15 15:12:40;;;;;;;;;;;10.00;99.90;;;;;;5023019;28;19918;-83
2021/12/15 15:15:08;;;;;;;;;;;9.90;99.90;;;;;;5020537;28;19909;-83
2021/12/15 15:17:47;;;;;;;;;;;9.90;99.90;;;;;;5031052;28;19918;-82
2021/12/15 15:20:15;;;;;;;;;;;9.90;99.90;;;;;;5025963;28;20259;-83
2021/12/15 15:22:42;;;;;;;;;;;9.90;99.90;;;;;;5030197;28;20201;-83
2021/12/15 15:25:08;;;;;;;;;;;9.90;99.90;;;;;;5034318;28;19917;-82
2021/12/15 15:27:36;;;;;;;;;;;9.90;99.90;;;;;;5027561;28;19963;-83
2021/12/15 15:30:04;;;;;;;;;;;9.90;99.90;;;;;;5015662;28;19929;-83
2021/12/15 15:32:32;;;;;;;;;;;9.90;99.90;;;;;;5014216;28;19944;-85
2021/12/15 15:35:06;;;;;;;;;;;9.90;99.90;;;;;;5030626;28;20622;-84
2021/12/15 15:37:32;;;;;;;;;;;9.90;99.90;;;;;;5037728;28;19924;-84
2021/12/15 15:40:17;;;;;;;;;;;9.90;99.90;;;;;;5035116;28;19913;-84
2021/12/15 15:42:43;;;;;;;;;;;9.90;99.90;;;;;;5036381;28;19924;-83
2021/12/15 15:45:23;;;;;;;;;;;9.90;99.90;;;;;;5033224;28;19917;-81
2021/12/15 15:47:49;;;;;;;;;;;9.90;99.90;;;;;;5015012;28;19967;-81
2021/12/15 15:50:15;;;;;;;;;;;9.80;99.90;;;;;;5019348;28;19917;-84
2021/12/15 15:52:42;;;;;;;;;;;9.90;99.90;;;;;;5029608;28;20343;-84
2021/12/15 15:55:09;;;;;;;;;;;9.90;99.90;;;;;;5030338;28;19913;-83
2021/12/15 15:57:34;;;;;;;;;;;9.80;99.90;;;;;;5025517;28;19939;-84
2021/12/15 16:00:00;;;;;;;;;;;9.80;99.90;;;;;;5032503;28;19913;-85
2021/12/15 16:02:26;;;;;;;;;;;9.90;99.90;;;;;;5038120;28;19916;-82